Wetterdaten Diepholz (ETND)

METAR
METAR text: ETND 240620Z 26009KT 5000 BR FEW013 SCT044 BKN180 19/17 Q1013 WHT Conditions at: ETND (DIEPHOLZ (GER-AF, DE) observed 0620 UTC 24 August 2017 Temperature: 19.0°C (66°F) Dewpoint: 17.0°C (63°F) [RH = 88%] Pressure (altimeter): 29.91 inches Hg (1013.0 mb) Winds: from the W (260 degrees) at 10 MPH (9 knots; 4.7 m/s) Visibility: 3 miles (5 km) Ceiling: 18000 feet AGL Clouds: few clouds at 1300 feet AGL =
scattered clouds at 4400 feet AGL =
broken clouds at 18000 feet AGL Weather: BR  (mist)
Sunrise (SR) / Sunset (SS)
04:25 / 18:32 UTC

Wetterdaten Bremen (EDDW)

METAR
METAR text: EDDW 240620Z VRB01KT 2300 BR OVC004 16/16 Q1012 TEMPO 1200 Conditions at: EDDW (BREMEN , DE) observed 0620 UTC 24 August 2017 Temperature: 16.0°C (61°F) Dewpoint: 16.0°C (61°F) [RH = 100%] Pressure (altimeter): 29.88 inches Hg (1012.0 mb) Winds: variable direction winds at 1 MPH (1 knots; 0.5 m/s) Visibility: 1.43 miles (2.30 km) Ceiling: 400 feet AGL Clouds: overcast cloud deck at 400 feet AGL Weather: BR  (mist)
Quelle: ADDS

Piloteninformation

Name

Militärflugplatz und Verkehrslandeplatz Diepholz

ICAO-CODE

ETND

Lage/Position

1,5 NM SW Diepholz

Koordinaten/Coordinates

52 35, 13 N / 08 20, 44 E

Zeit/Time

UTC+1 (Sommerzeit/DST UTC+2)

Höhe über Grund/Elevation

39 m/127 ft

Öffnungszeiten/OPR HRS

Sommerzeit

07:00 UTC - 18:00 UTC OT PPR

Winterzeit

08:00 UTC - SS+30 OT PPR

Kontrollzone/CTR

HX

Diepholz Info

+49 (0)5441 / 4426, 927400, Fax 4425

Piste/RWY

08/26

Länge, Breite/Dimensions

08/26 1.283m, 45m ASPH

Verfügbare Startlauf-, Landestrecke/TORA, LDA

08/26 1.283 m

Betriebsarten/Operation Cat.

Sichtflug (VFR), Sichtflug bei Nacht (NVFR)

Rufzeichen/Call sign

Diepholz Info 122.600 GE

zu anderen Zeiten/other times
(bei militärischer Öffnungszeit)
Diepholz Turm/Tower 122.100 EN/GE

Frequenz/Frequency

Diepholz Info 122.600 GE

zu anderen Zeiten/other times
122.100 EN/GE

Navigationshilfen/NAV Aids

006°/23 NM from OSN 114.30 - 268°/38 NM from NIE 116.50

Fluginformationsdienst/FIS

Bremen Information 119.825

Flugberatungsdienst/AIS

 +49 (0)69 / 78072500

Flugwetterberatung/MET

0900 1 077221

Flugwettervorhersage/GAFOR

7

Luftfahrzeuge/ACFT

Flugzeuge bis 5.700 kg MTOW
Hubschrauber (HEL) bis 5.700 kg MTOW
Motorsegler (TMG)
Ultraleichtflugzeuge (UL)
Segelflugzeuge (GLD)
Ballons und Luftschiffe (BA)
Fallschirmspringer (PJE)

andere/others PPR

Kraftstoffe/Fuel

JetA1, AVGAS100LL, SUPER+ (plus)

Öl/Oil

15W50

Platzrunde/TFC PAT

 S 1000

Hangar/HNGR

 auf Anfrage/on request

Bemerkungen/Remarks

SAT, SUN, HOL: Segelflugzeuge/GLD im Nordbereich/in northern area
Wohngebiete meiden/avoid residential areas.

 

Copyright © 2017 Flugplatz Diepholz-Dümmerland

© 2017 Flugplatz Diepholz-Dümmerland